sensor_id;sensor_type;location;lat;lon;timestamp;P1;durP1;ratioP1;P2;durP2;ratioP2
10945;SDS011;5525;42.648;23.368;2022-07-26T00:01:26;12.82;;;11.48;;
10945;SDS011;5525;42.648;23.368;2022-07-26T00:03:53;12.95;;;11.75;;
10945;SDS011;5525;42.648;23.368;2022-07-26T00:06:20;13.90;;;12.57;;
10945;SDS011;5525;42.648;23.368;2022-07-26T00:08:47;13.40;;;12.10;;
10945;SDS011;5525;42.648;23.368;2022-07-26T00:11:16;13.82;;;12.43;;
10945;SDS011;5525;42.648;23.368;2022-07-26T00:13:44;13.63;;;12.23;;
10945;SDS011;5525;42.648;23.368;2022-07-26T00:16:11;13.70;;;12.35;;
10945;SDS011;5525;42.648;23.368;2022-07-26T00:18:37;13.85;;;12.52;;
10945;SDS011;5525;42.648;23.368;2022-07-26T00:21:04;12.85;;;11.65;;
10945;SDS011;5525;42.648;23.368;2022-07-26T00:23:31;13.07;;;11.73;;
10945;SDS011;5525;42.648;23.368;2022-07-26T00:25:58;13.85;;;12.55;;
10945;SDS011;5525;42.648;23.368;2022-07-26T00:28:26;13.98;;;11.90;;
10945;SDS011;5525;42.648;23.368;2022-07-26T00:30:53;13.57;;;12.18;;
10945;SDS011;5525;42.648;23.368;2022-07-26T00:33:20;13.30;;;12.10;;
10945;SDS011;5525;42.648;23.368;2022-07-26T00:35:47;13.77;;;12.38;;
10945;SDS011;5525;42.648;23.368;2022-07-26T00:38:14;13.32;;;12.02;;
10945;SDS011;5525;42.648;23.368;2022-07-26T00:40:41;13.32;;;12.10;;
10945;SDS011;5525;42.648;23.368;2022-07-26T00:43:08;13.93;;;12.52;;
10945;SDS011;5525;42.648;23.368;2022-07-26T00:45:36;13.40;;;12.13;;
10945;SDS011;5525;42.648;23.368;2022-07-26T00:48:03;13.68;;;12.38;;
10945;SDS011;5525;42.648;23.368;2022-07-26T00:50:31;13.60;;;12.20;;
10945;SDS011;5525;42.648;23.368;2022-07-26T00:52:58;14.48;;;12.98;;
10945;SDS011;5525;42.648;23.368;2022-07-26T00:55:25;14.32;;;13.02;;
10945;SDS011;5525;42.648;23.368;2022-07-26T00:57:53;14.98;;;13.35;;
10945;SDS011;5525;42.648;23.368;2022-07-26T01:00:20;15.18;;;13.65;;
10945;SDS011;5525;42.648;23.368;2022-07-26T01:02:53;15.77;;;14.23;;
10945;SDS011;5525;42.648;23.368;2022-07-26T01:05:20;15.00;;;13.52;;
10945;SDS011;5525;42.648;23.368;2022-07-26T01:07:47;15.52;;;13.93;;
10945;SDS011;5525;42.648;23.368;2022-07-26T01:10:15;15.15;;;13.65;;
10945;SDS011;5525;42.648;23.368;2022-07-26T01:12:43;15.18;;;13.65;;
10945;SDS011;5525;42.648;23.368;2022-07-26T01:15:10;15.75;;;13.80;;
10945;SDS011;5525;42.648;23.368;2022-07-26T01:17:39;14.68;;;13.15;;
10945;SDS011;5525;42.648;23.368;2022-07-26T01:20:08;14.23;;;12.93;;
10945;SDS011;5525;42.648;23.368;2022-07-26T01:22:39;13.55;;;12.25;;
10945;SDS011;5525;42.648;23.368;2022-07-26T01:25:06;14.43;;;12.77;;
10945;SDS011;5525;42.648;23.368;2022-07-26T01:27:34;15.18;;;13.68;;
10945;SDS011;5525;42.648;23.368;2022-07-26T01:30:04;15.60;;;14.00;;
10945;SDS011;5525;42.648;23.368;2022-07-26T01:32:33;16.20;;;14.43;;
10945;SDS011;5525;42.648;23.368;2022-07-26T01:35:00;15.05;;;13.55;;
10945;SDS011;5525;42.648;23.368;2022-07-26T01:37:27;16.33;;;14.60;;
10945;SDS011;5525;42.648;23.368;2022-07-26T01:39:55;15.02;;;13.43;;
10945;SDS011;5525;42.648;23.368;2022-07-26T01:42:22;16.02;;;14.43;;
10945;SDS011;5525;42.648;23.368;2022-07-26T01:44:49;15.88;;;14.25;;
10945;SDS011;5525;42.648;23.368;2022-07-26T01:47:15;15.10;;;13.60;;
10945;SDS011;5525;42.648;23.368;2022-07-26T01:49:42;15.05;;;13.52;;
10945;SDS011;5525;42.648;23.368;2022-07-26T01:52:09;14.95;;;13.30;;
10945;SDS011;5525;42.648;23.368;2022-07-26T01:54:36;14.95;;;13.27;;
10945;SDS011;5525;42.648;23.368;2022-07-26T01:57:04;14.07;;;12.73;;
10945;SDS011;5525;42.648;23.368;2022-07-26T01:59:31;15.82;;;14.18;;
10945;SDS011;5525;42.648;23.368;2022-07-26T02:01:58;14.25;;;12.85;;
10945;SDS011;5525;42.648;23.368;2022-07-26T02:04:26;15.45;;;13.85;;
10945;SDS011;5525;42.648;23.368;2022-07-26T02:07:10;15.77;;;13.85;;
10945;SDS011;5525;42.648;23.368;2022-07-26T02:09:37;15.75;;;14.15;;
10945;SDS011;5525;42.648;23.368;2022-07-26T02:12:06;15.65;;;13.85;;
10945;SDS011;5525;42.648;23.368;2022-07-26T02:14:33;16.52;;;13.75;;
10945;SDS011;5525;42.648;23.368;2022-07-26T02:17:00;15.15;;;13.65;;
10945;SDS011;5525;42.648;23.368;2022-07-26T02:19:27;15.05;;;13.60;;
10945;SDS011;5525;42.648;23.368;2022-07-26T02:21:55;18.50;;;16.65;;
10945;SDS011;5525;42.648;23.368;2022-07-26T02:24:22;17.17;;;15.38;;
10945;SDS011;5525;42.648;23.368;2022-07-26T02:26:52;16.75;;;15.15;;
10945;SDS011;5525;42.648;23.368;2022-07-26T02:29:21;16.30;;;14.70;;
10945;SDS011;5525;42.648;23.368;2022-07-26T02:31:47;19.52;;;15.95;;
10945;SDS011;5525;42.648;23.368;2022-07-26T02:34:14;16.90;;;15.13;;
10945;SDS011;5525;42.648;23.368;2022-07-26T02:36:41;16.35;;;14.65;;
10945;SDS011;5525;42.648;23.368;2022-07-26T02:39:09;16.52;;;14.85;;
10945;SDS011;5525;42.648;23.368;2022-07-26T02:41:36;15.93;;;14.32;;
10945;SDS011;5525;42.648;23.368;2022-07-26T02:44:04;15.57;;;14.05;;
10945;SDS011;5525;42.648;23.368;2022-07-26T02:46:32;15.63;;;14.00;;
10945;SDS011;5525;42.648;23.368;2022-07-26T02:48:59;14.30;;;12.90;;
10945;SDS011;5525;42.648;23.368;2022-07-26T02:51:26;13.65;;;12.35;;
10945;SDS011;5525;42.648;23.368;2022-07-26T02:53:53;15.77;;;14.27;;
10945;SDS011;5525;42.648;23.368;2022-07-26T02:56:20;15.95;;;13.80;;
10945;SDS011;5525;42.648;23.368;2022-07-26T02:58:47;15.93;;;14.40;;
10945;SDS011;5525;42.648;23.368;2022-07-26T03:01:14;18.02;;;15.02;;
10945;SDS011;5525;42.648;23.368;2022-07-26T03:03:42;14.50;;;13.05;;
10945;SDS011;5525;42.648;23.368;2022-07-26T03:06:09;16.48;;;14.80;;
10945;SDS011;5525;42.648;23.368;2022-07-26T03:08:36;15.38;;;13.82;;
10945;SDS011;5525;42.648;23.368;2022-07-26T03:11:03;18.17;;;14.75;;
10945;SDS011;5525;42.648;23.368;2022-07-26T03:13:30;14.95;;;13.45;;
10945;SDS011;5525;42.648;23.368;2022-07-26T03:15:57;14.93;;;13.45;;
10945;SDS011;5525;42.648;23.368;2022-07-26T03:18:24;15.00;;;13.45;;
10945;SDS011;5525;42.648;23.368;2022-07-26T03:20:53;15.68;;;13.63;;
10945;SDS011;5525;42.648;23.368;2022-07-26T03:23:19;14.65;;;13.25;;
10945;SDS011;5525;42.648;23.368;2022-07-26T03:25:46;15.13;;;13.52;;
10945;SDS011;5525;42.648;23.368;2022-07-26T03:28:13;14.88;;;13.25;;
10945;SDS011;5525;42.648;23.368;2022-07-26T03:30:40;16.40;;;14.65;;
10945;SDS011;5525;42.648;23.368;2022-07-26T03:33:07;16.00;;;14.45;;
10945;SDS011;5525;42.648;23.368;2022-07-26T03:35:34;16.25;;;14.75;;
10945;SDS011;5525;42.648;23.368;2022-07-26T03:38:03;16.38;;;14.77;;
10945;SDS011;5525;42.648;23.368;2022-07-26T03:40:30;16.13;;;14.35;;
10945;SDS011;5525;42.648;23.368;2022-07-26T03:42:57;15.98;;;13.73;;
10945;SDS011;5525;42.648;23.368;2022-07-26T03:45:24;20.38;;;14.05;;
10945;SDS011;5525;42.648;23.368;2022-07-26T03:47:50;17.33;;;15.20;;
10945;SDS011;5525;42.648;23.368;2022-07-26T03:50:18;18.83;;;13.15;;
10945;SDS011;5525;42.648;23.368;2022-07-26T03:52:45;16.40;;;14.70;;
10945;SDS011;5525;42.648;23.368;2022-07-26T03:55:13;15.75;;;14.25;;
10945;SDS011;5525;42.648;23.368;2022-07-26T03:58:07;15.00;;;13.40;;
10945;SDS011;5525;42.648;23.368;2022-07-26T04:00:34;14.82;;;13.23;;
10945;SDS011;5525;42.648;23.368;2022-07-26T04:03:01;15.50;;;13.95;;
10945;SDS011;5525;42.648;23.368;2022-07-26T04:05:28;14.98;;;13.50;;
10945;SDS011;5525;42.648;23.368;2022-07-26T04:07:55;15.23;;;13.73;;
10945;SDS011;5525;42.648;23.368;2022-07-26T04:10:23;14.75;;;13.25;;
10945;SDS011;5525;42.648;23.368;2022-07-26T04:12:50;14.27;;;12.45;;
10945;SDS011;5525;42.648;23.368;2022-07-26T04:15:17;14.13;;;12.63;;
10945;SDS011;5525;42.648;23.368;2022-07-26T04:17:45;13.25;;;12.05;;
10945;SDS011;5525;42.648;23.368;2022-07-26T04:20:12;15.43;;;12.57;;
10945;SDS011;5525;42.648;23.368;2022-07-26T04:22:39;13.32;;;12.05;;
10945;SDS011;5525;42.648;23.368;2022-07-26T04:25:07;13.07;;;11.73;;
10945;SDS011;5525;42.648;23.368;2022-07-26T04:27:36;13.27;;;11.85;;
10945;SDS011;5525;42.648;23.368;2022-07-26T04:30:04;13.63;;;12.35;;
10945;SDS011;5525;42.648;23.368;2022-07-26T04:32:32;13.32;;;11.93;;
10945;SDS011;5525;42.648;23.368;2022-07-26T04:34:58;15.75;;;12.43;;
10945;SDS011;5525;42.648;23.368;2022-07-26T04:37:25;13.57;;;12.10;;
10945;SDS011;5525;42.648;23.368;2022-07-26T04:39:52;14.05;;;12.75;;
10945;SDS011;5525;42.648;23.368;2022-07-26T04:42:19;14.02;;;12.65;;
10945;SDS011;5525;42.648;23.368;2022-07-26T04:44:47;13.82;;;12.52;;
10945;SDS011;5525;42.648;23.368;2022-07-26T04:47:14;14.30;;;12.23;;
10945;SDS011;5525;42.648;23.368;2022-07-26T04:49:41;14.55;;;12.18;;
10945;SDS011;5525;42.648;23.368;2022-07-26T04:52:08;14.05;;;12.68;;
10945;SDS011;5525;42.648;23.368;2022-07-26T04:54:35;13.80;;;12.50;;
10945;SDS011;5525;42.648;23.368;2022-07-26T04:57:02;14.43;;;12.25;;
10945;SDS011;5525;42.648;23.368;2022-07-26T04:59:29;13.38;;;12.15;;
10945;SDS011;5525;42.648;23.368;2022-07-26T05:01:57;13.25;;;12.00;;
10945;SDS011;5525;42.648;23.368;2022-07-26T05:04:24;12.55;;;11.45;;
10945;SDS011;5525;42.648;23.368;2022-07-26T05:06:51;13.07;;;11.65;;
10945;SDS011;5525;42.648;23.368;2022-07-26T05:09:18;12.75;;;11.57;;
10945;SDS011;5525;42.648;23.368;2022-07-26T05:11:45;13.05;;;11.73;;
10945;SDS011;5525;42.648;23.368;2022-07-26T05:14:12;13.15;;;11.85;;
10945;SDS011;5525;42.648;23.368;2022-07-26T05:16:39;12.70;;;11.55;;
10945;SDS011;5525;42.648;23.368;2022-07-26T05:19:07;13.20;;;12.00;;
10945;SDS011;5525;42.648;23.368;2022-07-26T05:21:34;13.05;;;11.75;;
10945;SDS011;5525;42.648;23.368;2022-07-26T05:24:01;12.23;;;11.23;;
10945;SDS011;5525;42.648;23.368;2022-07-26T05:26:28;12.55;;;11.35;;
10945;SDS011;5525;42.648;23.368;2022-07-26T05:28:55;12.73;;;11.45;;
10945;SDS011;5525;42.648;23.368;2022-07-26T05:31:23;13.10;;;11.75;;
10945;SDS011;5525;42.648;23.368;2022-07-26T05:33:50;13.13;;;11.23;;
10945;SDS011;5525;42.648;23.368;2022-07-26T05:36:18;12.43;;;11.23;;
10945;SDS011;5525;42.648;23.368;2022-07-26T05:38:45;12.35;;;11.35;;
10945;SDS011;5525;42.648;23.368;2022-07-26T05:41:12;12.82;;;11.40;;
10945;SDS011;5525;42.648;23.368;2022-07-26T05:43:39;12.68;;;11.55;;
10945;SDS011;5525;42.648;23.368;2022-07-26T05:46:06;13.20;;;11.65;;
10945;SDS011;5525;42.648;23.368;2022-07-26T05:48:33;12.00;;;10.90;;
10945;SDS011;5525;42.648;23.368;2022-07-26T05:50:59;14.63;;;11.77;;
10945;SDS011;5525;42.648;23.368;2022-07-26T05:53:28;13.35;;;11.98;;
10945;SDS011;5525;42.648;23.368;2022-07-26T05:55:55;12.82;;;11.63;;
10945;SDS011;5525;42.648;23.368;2022-07-26T05:58:21;12.32;;;11.23;;
10945;SDS011;5525;42.648;23.368;2022-07-26T06:00:48;13.30;;;12.05;;
10945;SDS011;5525;42.648;23.368;2022-07-26T06:03:15;12.05;;;11.10;;
10945;SDS011;5525;42.648;23.368;2022-07-26T06:05:48;13.38;;;11.98;;
10945;SDS011;5525;42.648;23.368;2022-07-26T06:08:16;13.48;;;12.15;;
10945;SDS011;5525;42.648;23.368;2022-07-26T06:10:45;13.15;;;11.85;;
10945;SDS011;5525;42.648;23.368;2022-07-26T06:13:12;13.13;;;11.85;;
10945;SDS011;5525;42.648;23.368;2022-07-26T06:15:40;12.65;;;11.45;;
10945;SDS011;5525;42.648;23.368;2022-07-26T06:18:07;12.13;;;11.13;;
10945;SDS011;5525;42.648;23.368;2022-07-26T06:20:36;12.05;;;11.00;;
10945;SDS011;5525;42.648;23.368;2022-07-26T06:23:03;13.32;;;12.02;;
10945;SDS011;5525;42.648;23.368;2022-07-26T06:25:30;12.35;;;11.18;;
10945;SDS011;5525;42.648;23.368;2022-07-26T06:28:00;16.02;;;14.43;;
10945;SDS011;5525;42.648;23.368;2022-07-26T06:30:27;16.17;;;13.40;;
10945;SDS011;5525;42.648;23.368;2022-07-26T06:32:54;16.33;;;14.18;;
10945;SDS011;5525;42.648;23.368;2022-07-26T06:35:21;15.90;;;13.75;;
10945;SDS011;5525;42.648;23.368;2022-07-26T06:37:55;16.15;;;14.10;;
10945;SDS011;5525;42.648;23.368;2022-07-26T06:40:22;14.52;;;12.93;;
10945;SDS011;5525;42.648;23.368;2022-07-26T06:42:49;15.55;;;13.40;;
10945;SDS011;5525;42.648;23.368;2022-07-26T06:45:17;13.60;;;12.20;;
10945;SDS011;5525;42.648;23.368;2022-07-26T06:47:44;14.82;;;12.80;;
10945;SDS011;5525;42.648;23.368;2022-07-26T06:50:11;14.75;;;12.98;;
10945;SDS011;5525;42.648;23.368;2022-07-26T06:52:38;12.95;;;11.70;;
10945;SDS011;5525;42.648;23.368;2022-07-26T06:55:05;13.55;;;12.15;;
10945;SDS011;5525;42.648;23.368;2022-07-26T06:57:33;13.50;;;12.25;;
10945;SDS011;5525;42.648;23.368;2022-07-26T07:00:00;13.40;;;11.75;;
10945;SDS011;5525;42.648;23.368;2022-07-26T07:02:29;14.15;;;12.70;;
10945;SDS011;5525;42.648;23.368;2022-07-26T07:04:56;14.05;;;12.55;;
10945;SDS011;5525;42.648;23.368;2022-07-26T07:07:23;14.25;;;12.95;;
10945;SDS011;5525;42.648;23.368;2022-07-26T07:09:50;14.23;;;12.80;;
10945;SDS011;5525;42.648;23.368;2022-07-26T07:12:17;13.45;;;12.13;;
10945;SDS011;5525;42.648;23.368;2022-07-26T07:14:44;13.43;;;12.23;;
10945;SDS011;5525;42.648;23.368;2022-07-26T07:17:10;15.75;;;13.10;;
10945;SDS011;5525;42.648;23.368;2022-07-26T07:19:39;15.45;;;13.20;;
10945;SDS011;5525;42.648;23.368;2022-07-26T07:22:06;13.88;;;12.50;;
10945;SDS011;5525;42.648;23.368;2022-07-26T07:24:35;15.68;;;14.02;;
10945;SDS011;5525;42.648;23.368;2022-07-26T07:27:05;14.50;;;13.00;;
10945;SDS011;5525;42.648;23.368;2022-07-26T07:29:32;13.77;;;12.57;;
10945;SDS011;5525;42.648;23.368;2022-07-26T07:31:59;13.07;;;11.75;;
10945;SDS011;5525;42.648;23.368;2022-07-26T07:34:26;13.27;;;12.00;;
10945;SDS011;5525;42.648;23.368;2022-07-26T07:36:55;13.40;;;12.05;;
10945;SDS011;5525;42.648;23.368;2022-07-26T07:39:21;16.17;;;12.57;;
10945;SDS011;5525;42.648;23.368;2022-07-26T07:41:48;13.38;;;12.18;;
10945;SDS011;5525;42.648;23.368;2022-07-26T07:44:16;13.50;;;12.25;;
10945;SDS011;5525;42.648;23.368;2022-07-26T07:46:42;13.65;;;12.48;;
10945;SDS011;5525;42.648;23.368;2022-07-26T07:49:09;13.60;;;12.40;;
10945;SDS011;5525;42.648;23.368;2022-07-26T07:51:36;13.23;;;12.02;;
10945;SDS011;5525;42.648;23.368;2022-07-26T07:54:05;13.57;;;12.35;;
10945;SDS011;5525;42.648;23.368;2022-07-26T07:56:33;13.20;;;11.90;;
10945;SDS011;5525;42.648;23.368;2022-07-26T07:59:00;15.60;;;14.10;;
10945;SDS011;5525;42.648;23.368;2022-07-26T08:01:27;15.95;;;13.10;;
10945;SDS011;5525;42.648;23.368;2022-07-26T08:03:54;13.65;;;12.43;;
10945;SDS011;5525;42.648;23.368;2022-07-26T08:06:21;14.23;;;12.88;;
10945;SDS011;5525;42.648;23.368;2022-07-26T08:08:48;14.15;;;12.85;;
10945;SDS011;5525;42.648;23.368;2022-07-26T08:11:16;14.00;;;12.60;;
10945;SDS011;5525;42.648;23.368;2022-07-26T08:13:43;15.13;;;13.30;;
10945;SDS011;5525;42.648;23.368;2022-07-26T08:16:10;14.05;;;12.73;;
10945;SDS011;5525;42.648;23.368;2022-07-26T08:18:37;15.52;;;12.38;;
10945;SDS011;5525;42.648;23.368;2022-07-26T08:21:04;13.90;;;12.60;;
10945;SDS011;5525;42.648;23.368;2022-07-26T08:23:31;13.57;;;12.32;;
10945;SDS011;5525;42.648;23.368;2022-07-26T08:25:58;13.73;;;12.60;;
10945;SDS011;5525;42.648;23.368;2022-07-26T08:28:26;16.65;;;13.07;;
10945;SDS011;5525;42.648;23.368;2022-07-26T08:30:54;13.85;;;12.35;;
10945;SDS011;5525;42.648;23.368;2022-07-26T08:33:20;13.38;;;12.27;;
10945;SDS011;5525;42.648;23.368;2022-07-26T08:35:48;13.85;;;12.75;;
10945;SDS011;5525;42.648;23.368;2022-07-26T08:38:14;13.52;;;12.32;;
10945;SDS011;5525;42.648;23.368;2022-07-26T08:40:41;14.07;;;12.65;;
10945;SDS011;5525;42.648;23.368;2022-07-26T08:43:08;13.65;;;12.30;;
10945;SDS011;5525;42.648;23.368;2022-07-26T08:45:37;14.20;;;12.73;;
10945;SDS011;5525;42.648;23.368;2022-07-26T08:48:04;13.98;;;12.43;;
10945;SDS011;5525;42.648;23.368;2022-07-26T08:50:32;13.32;;;12.20;;
10945;SDS011;5525;42.648;23.368;2022-07-26T08:52:59;12.63;;;11.63;;
10945;SDS011;5525;42.648;23.368;2022-07-26T08:55:33;13.48;;;12.13;;
10945;SDS011;5525;42.648;23.368;2022-07-26T08:58:01;13.48;;;12.27;;
10945;SDS011;5525;42.648;23.368;2022-07-26T09:00:29;14.55;;;13.18;;
10945;SDS011;5525;42.648;23.368;2022-07-26T09:03:00;14.32;;;13.18;;
10945;SDS011;5525;42.648;23.368;2022-07-26T09:05:27;13.60;;;12.40;;
10945;SDS011;5525;42.648;23.368;2022-07-26T09:07:57;14.98;;;13.20;;
10945;SDS011;5525;42.648;23.368;2022-07-26T09:10:25;14.80;;;13.40;;
10945;SDS011;5525;42.648;23.368;2022-07-26T09:12:53;14.65;;;13.07;;
10945;SDS011;5525;42.648;23.368;2022-07-26T09:15:22;14.57;;;13.38;;
10945;SDS011;5525;42.648;23.368;2022-07-26T09:17:51;13.88;;;12.75;;
10945;SDS011;5525;42.648;23.368;2022-07-26T09:20:21;14.48;;;13.30;;
10945;SDS011;5525;42.648;23.368;2022-07-26T09:23:03;13.65;;;12.48;;
10945;SDS011;5525;42.648;23.368;2022-07-26T09:25:32;13.88;;;12.77;;
10945;SDS011;5525;42.648;23.368;2022-07-26T09:28:00;13.73;;;12.40;;
10945;SDS011;5525;42.648;23.368;2022-07-26T09:30:28;13.43;;;12.20;;
10945;SDS011;5525;42.648;23.368;2022-07-26T09:32:58;12.43;;;11.20;;
10945;SDS011;5525;42.648;23.368;2022-07-26T09:35:28;12.20;;;11.23;;
10945;SDS011;5525;42.648;23.368;2022-07-26T09:37:58;12.15;;;11.15;;
10945;SDS011;5525;42.648;23.368;2022-07-26T09:40:30;12.52;;;11.50;;
10945;SDS011;5525;42.648;23.368;2022-07-26T09:42:59;12.63;;;11.32;;
10945;SDS011;5525;42.648;23.368;2022-07-26T09:45:28;12.75;;;11.77;;
10945;SDS011;5525;42.648;23.368;2022-07-26T09:47:56;11.63;;;10.73;;
10945;SDS011;5525;42.648;23.368;2022-07-26T09:50:24;12.30;;;11.18;;
10945;SDS011;5525;42.648;23.368;2022-07-26T09:53:04;12.77;;;11.68;;
10945;SDS011;5525;42.648;23.368;2022-07-26T09:55:33;12.38;;;11.27;;
10945;SDS011;5525;42.648;23.368;2022-07-26T09:58:01;11.88;;;10.98;;
10945;SDS011;5525;42.648;23.368;2022-07-26T10:00:30;12.02;;;11.02;;
10945;SDS011;5525;42.648;23.368;2022-07-26T10:02:58;11.23;;;10.32;;
10945;SDS011;5525;42.648;23.368;2022-07-26T10:05:25;12.85;;;11.75;;
10945;SDS011;5525;42.648;23.368;2022-07-26T10:07:52;11.98;;;11.05;;
10945;SDS011;5525;42.648;23.368;2022-07-26T10:10:26;12.35;;;11.30;;
10945;SDS011;5525;42.648;23.368;2022-07-26T10:12:58;11.82;;;10.80;;
10945;SDS011;5525;42.648;23.368;2022-07-26T10:15:36;12.25;;;11.25;;
10945;SDS011;5525;42.648;23.368;2022-07-26T10:18:07;12.27;;;11.35;;
10945;SDS011;5525;42.648;23.368;2022-07-26T10:20:40;11.98;;;10.77;;
10945;SDS011;5525;42.648;23.368;2022-07-26T10:32:13;12.05;;;10.95;;
10945;SDS011;5525;42.648;23.368;2022-07-26T10:34:43;11.25;;;10.13;;
10945;SDS011;5525;42.648;23.368;2022-07-26T10:37:22;11.05;;;10.25;;
10945;SDS011;5525;42.648;23.368;2022-07-26T10:42:48;12.35;;;11.20;;
10945;SDS011;5525;42.648;23.368;2022-07-26T10:45:16;11.95;;;10.77;;
10945;SDS011;5525;42.648;23.368;2022-07-26T10:50:36;11.73;;;10.80;;
10945;SDS011;5525;42.648;23.368;2022-07-26T10:53:04;11.73;;;10.82;;
10945;SDS011;5525;42.648;23.368;2022-07-26T10:55:39;11.63;;;10.60;;
10945;SDS011;5525;42.648;23.368;2022-07-26T10:58:12;11.82;;;10.68;;
10945;SDS011;5525;42.648;23.368;2022-07-26T11:00:39;12.27;;;11.15;;
10945;SDS011;5525;42.648;23.368;2022-07-26T11:03:18;12.85;;;11.00;;
10945;SDS011;5525;42.648;23.368;2022-07-26T11:05:45;11.63;;;10.73;;
10945;SDS011;5525;42.648;23.368;2022-07-26T11:08:12;12.35;;;11.00;;
10945;SDS011;5525;42.648;23.368;2022-07-26T11:10:44;12.13;;;11.13;;
10945;SDS011;5525;42.648;23.368;2022-07-26T11:13:18;12.20;;;11.15;;
10945;SDS011;5525;42.648;23.368;2022-07-26T11:15:50;11.63;;;10.63;;
10945;SDS011;5525;42.648;23.368;2022-07-26T11:18:24;11.65;;;10.65;;
10945;SDS011;5525;42.648;23.368;2022-07-26T11:21:07;11.50;;;10.40;;
10945;SDS011;5525;42.648;23.368;2022-07-26T11:23:41;11.77;;;10.63;;
10945;SDS011;5525;42.648;23.368;2022-07-26T11:26:11;11.30;;;10.40;;
10945;SDS011;5525;42.648;23.368;2022-07-26T11:28:53;11.90;;;10.90;;
10945;SDS011;5525;42.648;23.368;2022-07-26T11:31:24;11.20;;;10.25;;
10945;SDS011;5525;42.648;23.368;2022-07-26T11:33:53;11.23;;;10.23;;
10945;SDS011;5525;42.648;23.368;2022-07-26T11:36:31;12.20;;;11.10;;
10945;SDS011;5525;42.648;23.368;2022-07-26T11:39:03;11.57;;;10.52;;
10945;SDS011;5525;42.648;23.368;2022-07-26T11:41:31;11.77;;;10.13;;
10945;SDS011;5525;42.648;23.368;2022-07-26T11:44:00;11.73;;;10.57;;
10945;SDS011;5525;42.648;23.368;2022-07-26T11:46:32;11.30;;;10.20;;
10945;SDS011;5525;42.648;23.368;2022-07-26T11:49:01;10.57;;;9.75;;
10945;SDS011;5525;42.648;23.368;2022-07-26T11:51:31;11.10;;;10.13;;
10945;SDS011;5525;42.648;23.368;2022-07-26T11:54:01;10.35;;;9.45;;
10945;SDS011;5525;42.648;23.368;2022-07-26T11:56:31;10.13;;;9.23;;
10945;SDS011;5525;42.648;23.368;2022-07-26T11:58:58;9.85;;;9.05;;
10945;SDS011;5525;42.648;23.368;2022-07-26T12:01:29;9.85;;;8.95;;
10945;SDS011;5525;42.648;23.368;2022-07-26T12:03:59;10.40;;;9.35;;
10945;SDS011;5525;42.648;23.368;2022-07-26T12:06:27;10.75;;;9.70;;
10945;SDS011;5525;42.648;23.368;2022-07-26T12:08:55;10.82;;;9.75;;
10945;SDS011;5525;42.648;23.368;2022-07-26T12:11:23;10.55;;;9.65;;
10945;SDS011;5525;42.648;23.368;2022-07-26T12:14:03;10.75;;;9.65;;
10945;SDS011;5525;42.648;23.368;2022-07-26T12:16:43;10.75;;;9.65;;
10945;SDS011;5525;42.648;23.368;2022-07-26T12:19:22;9.43;;;8.63;;
10945;SDS011;5525;42.648;23.368;2022-07-26T12:21:51;9.77;;;8.88;;
10945;SDS011;5525;42.648;23.368;2022-07-26T12:24:32;10.18;;;9.15;;
10945;SDS011;5525;42.648;23.368;2022-07-26T12:27:04;10.65;;;9.52;;
10945;SDS011;5525;42.648;23.368;2022-07-26T12:29:34;9.88;;;9.00;;
10945;SDS011;5525;42.648;23.368;2022-07-26T12:32:03;10.57;;;9.50;;
10945;SDS011;5525;42.648;23.368;2022-07-26T12:34:32;9.95;;;9.07;;
10945;SDS011;5525;42.648;23.368;2022-07-26T12:37:15;9.77;;;8.90;;
10945;SDS011;5525;42.648;23.368;2022-07-26T12:39:57;9.90;;;9.00;;
10945;SDS011;5525;42.648;23.368;2022-07-26T12:42:27;10.73;;;9.07;;
10945;SDS011;5525;42.648;23.368;2022-07-26T12:44:57;10.38;;;8.82;;
10945;SDS011;5525;42.648;23.368;2022-07-26T12:47:26;9.68;;;8.60;;
10945;SDS011;5525;42.648;23.368;2022-07-26T12:49:53;9.75;;;8.68;;
10945;SDS011;5525;42.648;23.368;2022-07-26T12:52:21;9.55;;;8.52;;
10945;SDS011;5525;42.648;23.368;2022-07-26T12:54:49;8.90;;;8.10;;
10945;SDS011;5525;42.648;23.368;2022-07-26T12:57:18;9.95;;;8.98;;
10945;SDS011;5525;42.648;23.368;2022-07-26T12:59:46;9.45;;;8.68;;
10945;SDS011;5525;42.648;23.368;2022-07-26T13:02:16;10.40;;;9.40;;
10945;SDS011;5525;42.648;23.368;2022-07-26T13:04:44;9.80;;;8.93;;
10945;SDS011;5525;42.648;23.368;2022-07-26T13:07:11;9.38;;;8.48;;
10945;SDS011;5525;42.648;23.368;2022-07-26T13:09:40;10.13;;;9.15;;
10945;SDS011;5525;42.648;23.368;2022-07-26T13:12:07;9.95;;;9.05;;
10945;SDS011;5525;42.648;23.368;2022-07-26T13:14:36;9.10;;;8.23;;
10945;SDS011;5525;42.648;23.368;2022-07-26T13:17:04;9.18;;;8.38;;
10945;SDS011;5525;42.648;23.368;2022-07-26T13:19:34;10.48;;;9.57;;
10945;SDS011;5525;42.648;23.368;2022-07-26T13:22:02;10.43;;;9.50;;
10945;SDS011;5525;42.648;23.368;2022-07-26T13:24:31;11.85;;;10.85;;
10945;SDS011;5525;42.648;23.368;2022-07-26T13:26:59;11.38;;;10.23;;
10945;SDS011;5525;42.648;23.368;2022-07-26T13:29:27;11.23;;;10.25;;
10945;SDS011;5525;42.648;23.368;2022-07-26T13:31:54;11.05;;;9.95;;
10945;SDS011;5525;42.648;23.368;2022-07-26T13:34:23;11.20;;;10.10;;
10945;SDS011;5525;42.648;23.368;2022-07-26T13:36:52;11.20;;;9.85;;
10945;SDS011;5525;42.648;23.368;2022-07-26T13:39:19;11.05;;;9.95;;
10945;SDS011;5525;42.648;23.368;2022-07-26T13:41:46;10.27;;;9.27;;
10945;SDS011;5525;42.648;23.368;2022-07-26T13:44:13;11.02;;;10.00;;
10945;SDS011;5525;42.648;23.368;2022-07-26T13:46:41;10.98;;;9.98;;
10945;SDS011;5525;42.648;23.368;2022-07-26T13:49:09;11.00;;;9.80;;
10945;SDS011;5525;42.648;23.368;2022-07-26T13:51:36;10.15;;;9.35;;
10945;SDS011;5525;42.648;23.368;2022-07-26T13:54:23;10.10;;;8.95;;
10945;SDS011;5525;42.648;23.368;2022-07-26T13:56:52;11.98;;;9.30;;
10945;SDS011;5525;42.648;23.368;2022-07-26T13:59:19;13.00;;;9.63;;
10945;SDS011;5525;42.648;23.368;2022-07-26T14:01:48;11.05;;;9.90;;
10945;SDS011;5525;42.648;23.368;2022-07-26T14:04:16;15.77;;;10.55;;
10945;SDS011;5525;42.648;23.368;2022-07-26T14:06:43;11.90;;;10.70;;
10945;SDS011;5525;42.648;23.368;2022-07-26T14:09:10;10.68;;;9.57;;
10945;SDS011;5525;42.648;23.368;2022-07-26T14:11:39;9.80;;;9.02;;
10945;SDS011;5525;42.648;23.368;2022-07-26T14:14:06;10.93;;;9.93;;
10945;SDS011;5525;42.648;23.368;2022-07-26T14:16:37;11.18;;;9.55;;
10945;SDS011;5525;42.648;23.368;2022-07-26T14:19:04;10.68;;;9.57;;
10945;SDS011;5525;42.648;23.368;2022-07-26T14:21:32;11.95;;;9.70;;
10945;SDS011;5525;42.648;23.368;2022-07-26T14:24:01;10.57;;;9.52;;
10945;SDS011;5525;42.648;23.368;2022-07-26T14:26:31;10.52;;;9.50;;
10945;SDS011;5525;42.648;23.368;2022-07-26T14:29:00;11.27;;;10.20;;
10945;SDS011;5525;42.648;23.368;2022-07-26T14:31:29;11.25;;;10.10;;
10945;SDS011;5525;42.648;23.368;2022-07-26T14:33:57;10.68;;;9.57;;
10945;SDS011;5525;42.648;23.368;2022-07-26T14:36:24;10.73;;;9.57;;
10945;SDS011;5525;42.648;23.368;2022-07-26T14:38:51;9.95;;;9.15;;
10945;SDS011;5525;42.648;23.368;2022-07-26T14:41:19;10.60;;;9.60;;
10945;SDS011;5525;42.648;23.368;2022-07-26T14:43:47;10.57;;;9.68;;
10945;SDS011;5525;42.648;23.368;2022-07-26T14:46:16;10.57;;;9.65;;